Latest Weather Observations for Ernabella/Pukatja

IDD60801

Issued at 10:01 pm CST Monday 8 February 2016 (issued every 30 minutes, with the page automatically refreshed every 10 minutes)

About weather observations | Map of weather stations | Latest weather observations for NT | Other Formats
Station Details ID: 016097 Name: PUKATJA Lat: -26.26 Lon: 132.18 Height: 703.2 m
Data from the previous 72 hours. | See also: Recent months at Ernabella/Pukatja
Date/Time
CST
Temp
°C
App
Temp
°C
Dew
Point
Rel
Hum
%
Delta-T
°C
Wind Press
QNH
hPa
Press
MSL
hPa
Rain
since 9 am
mm
Dir
 
Spd
km/h
Gust
km/h
Spd
kts
Gust
kts
08/10:00pm 30.2 25.8 2.5 17 14.3 ESE 15 22 8 12 1018.5 - 0.0
08/09:30pm 30.5 26.1 2.7 17 14.4 ESE 15 22 8 12 1018.3 - 0.0
08/09:00pm 30.7 26.0 2.9 17 14.5 ESE 17 22 9 12 1018.2 - 0.0
08/08:30pm 31.2 26.1 3.3 17 14.7 ESE 19 26 10 14 1017.9 - 0.0
08/08:00pm 31.8 27.1 2.9 16 15.1 ESE 17 28 9 15 1017.7 1012.5 0.0
08/07:30pm 32.2 26.0 2.3 15 15.6 SE 24 35 13 19 1017.5 - 0.0
08/07:00pm 32.7 26.8 1.7 14 16.0 E 22 32 12 17 1017.2 - 0.0
08/06:30pm 33.5 27.7 2.4 14 16.3 ESE 22 35 12 19 1016.8 - 0.0
08/06:00pm 33.9 27.6 1.6 13 16.8 ESE 24 35 13 19 1016.6 - 0.0
08/05:30pm 34.1 28.8 1.8 13 16.9 SSE 19 37 10 20 1016.6 - 0.0
08/05:00pm 35.0 27.9 1.4 12 17.5 ESE 28 39 15 21 1016.6 1011.4 0.0
08/04:30pm 34.3 27.9 3.0 14 16.7 SE 26 41 14 22 1016.5 - 0.0
08/04:14pm 35.0 29.8 3.5 14 17.0 E 20 46 11 25 1016.7 - 0.0
08/04:07pm 35.0 26.2 3.5 14 17.0 SE 39 46 21 25 1016.8 - 0.0
08/04:00pm 35.3 28.4 2.7 13 17.4 E 28 37 15 20 1016.7 - 0.0
08/03:30pm 34.7 27.8 2.3 13 17.1 SE 28 43 15 23 1017.0 - 0.0
08/03:00pm 34.3 27.5 0.8 12 17.2 SE 26 39 14 21 1017.3 - 0.0
08/02:30pm 35.7 29.8 1.9 12 17.8 SE 22 37 12 20 1017.6 - 0.0
08/02:00pm 34.2 28.5 2.9 14 16.6 SE 22 39 12 21 1018.0 1012.8 0.0
08/01:42pm 33.9 27.2 3.6 15 16.3 SE 28 46 15 25 1018.2 - 0.0
08/01:30pm 33.8 28.4 4.5 16 15.9 ESE 22 41 12 22 1018.7 - 0.0
08/01:00pm 34.2 27.9 5.7 17 15.8 ESE 28 41 15 22 1019.2 - 0.0
08/12:30pm 31.7 27.1 6.7 21 13.9 SE 20 32 11 17 1019.6 - 0.0
08/12:09pm 32.2 26.2 7.1 21 14.1 E 28 48 15 26 1019.9 - 0.0
08/12:00pm 32.9 27.6 7.0 20 14.6 E 24 50 13 27 1020.1 - 0.0
08/11:51am 32.3 26.5 7.9 22 13.9 SE 28 50 15 27 1020.1 - 0.0
08/11:30am 31.4 28.0 7.8 23 13.4 SE 15 30 8 16 1020.5 - 0.0
08/11:00am 31.2 27.2 8.2 24 13.1 ESE 19 33 10 18 1020.9 1015.8 0.0
08/10:30am 30.4 26.2 8.2 25 12.6 ESE 20 28 11 15 1021.2 - 0.0
08/10:00am 29.5 24.5 8.0 26 12.1 ESE 24 33 13 18 1021.3 - 0.0
08/09:30am 28.8 24.1 7.9 27 11.7 SE 22 32 12 17 1021.3 - 0.0
08/09:00am 27.8 22.8 8.1 29 11.0 SSE 24 32 13 17 1021.3 - 0.0
08/08:30am 26.0 20.9 7.6 31 10.1 SE 24 33 13 18 1021.3 - 0.0
08/08:00am 25.1 19.9 7.3 32 9.7 SE 24 32 13 17 1021.2 1016.1 0.0
08/07:30am 24.6 19.7 6.8 32 9.6 SSE 22 30 12 16 1021.0 - 0.0
08/07:00am 24.6 20.6 6.8 32 9.6 SSE 17 26 9 14 1020.8 - 0.0
08/06:30am 23.6 19.8 7.7 36 8.6 SSE 17 20 9 11 1020.3 - 0.0
08/06:00am 21.3 20.7 7.5 41 7.4 CALM 0 0 0 0 1019.7 - 0.0
08/05:30am 21.6 21.1 7.8 41 7.4 CALM 0 0 0 0 1019.4 - 0.0
08/05:00am 22.4 21.9 7.8 39 7.9 CALM 0 0 0 0 1019.1 1013.9 0.0
08/04:30am 21.5 19.7 7.0 39 7.7 N 6 7 3 4 1019.0 - 0.0
08/04:00am 22.1 19.9 6.3 36 8.3 N 7 9 4 5 1019.0 - 0.0
08/03:30am 23.7 21.2 6.5 33 9.2 NE 9 11 5 6 1018.8 - 0.0
08/03:00am 25.9 22.6 8.0 32 9.9 E 15 22 8 12 1018.8 - 0.0
08/02:30am 26.5 22.1 6.5 28 10.8 ESE 19 26 10 14 1018.9 - 0.0
08/02:00am 27.4 22.0 4.5 23 12.0 SE 22 32 12 17 1018.8 1013.6 0.0
08/01:30am 27.6 22.1 4.0 22 12.3 SE 22 30 12 16 1018.8 - 0.0
08/01:00am 27.8 23.2 3.5 21 12.6 SE 17 26 9 14 1018.9 - 0.0
08/12:30am 28.2 23.8 4.5 22 12.5 SSE 17 24 9 13 1018.8 - 0.0
08/12:00am 28.0 23.5 4.3 22 12.4 SSE 17 24 9 13 1019.0 - 0.0
 
Date/Time
CST
Temp
°C
App
Temp
°C
Dew
Point
Rel
Hum
%
Delta-T
°C
Wind Press
QNH
hPa
Press
MSL
hPa
Rain
since 9 am
mm
Dir
 
Spd
km/h
Gust
km/h
Spd
kts
Gust
kts
07/11:30pm 28.7 24.6 4.2 21 12.9 SE 15 24 8 13 1019.0 - 0.0
07/11:00pm 29.5 24.5 3.5 19 13.6 ESE 19 30 10 16 1018.9 1013.7 0.0
07/10:30pm 29.3 25.0 3.3 19 13.5 SE 15 20 8 11 1018.9 - 0.0
07/10:00pm 29.6 24.8 2.8 18 13.8 ESE 17 20 9 11 1018.6 - 0.0
07/09:30pm 30.0 25.1 2.3 17 14.2 E 17 24 9 13 1018.2 - 0.0
07/09:00pm 29.9 25.3 1.4 16 14.4 ESE 15 22 8 12 1017.8 - 0.0
07/08:30pm 30.6 25.7 1.9 16 14.7 ESE 17 24 9 13 1017.6 - 0.0
07/08:00pm 31.3 25.9 2.5 16 14.9 ESE 20 26 11 14 1017.3 1012.1 0.0
07/07:30pm 31.7 25.5 1.9 15 15.4 SE 24 33 13 18 1016.8 - 0.0
07/07:00pm 32.3 25.6 1.4 14 15.9 ESE 26 39 14 21 1016.4 - 0.0
07/06:30pm 33.0 26.4 -0.2 12 16.7 SE 24 41 13 22 1016.1 - 0.0
07/06:00pm 33.5 27.6 -1.0 11 17.1 SE 20 35 11 19 1015.9 - 0.0
07/05:30pm 33.4 26.0 -1.0 11 17.1 SE 28 46 15 25 1015.8 - 0.0
07/05:29pm 33.7 26.3 -0.8 11 17.2 SE 28 46 15 25 1015.7 - 0.0
07/05:00pm 34.0 28.3 -0.6 11 17.4 ESE 19 35 10 19 1015.5 1010.2 0.0
07/04:30pm 34.6 27.9 -1.4 10 17.9 ESE 24 39 13 21 1015.6 - 0.0
07/04:00pm 33.8 26.4 -0.7 11 17.3 E 28 43 15 23 1015.7 - 0.0
07/03:35pm 34.5 27.0 -1.5 10 17.9 SE 28 50 15 27 1015.9 - 0.0
07/03:30pm 33.4 27.5 -1.0 11 17.1 SE 20 39 11 21 1015.8 - 0.0
07/03:00pm 34.0 27.4 -0.6 11 17.4 ESE 24 33 13 18 1016.3 - 0.0
07/02:30pm 33.9 27.4 0.5 12 17.0 ESE 24 39 13 21 1016.4 - 0.0
07/02:00pm 33.3 26.4 0.1 12 16.8 SE 26 43 14 23 1016.8 1011.7 0.0
07/01:30pm 33.4 28.4 1.3 13 16.5 S 17 30 9 16 1017.3 - 0.0
07/01:00pm 33.1 27.5 1.0 13 16.4 SE 20 30 11 16 1017.7 - 0.0
07/12:30pm 32.7 27.3 2.7 15 15.8 SE 20 35 11 19 1018.0 - 0.0
07/12:00pm 31.6 25.7 1.8 15 15.3 ESE 22 33 12 18 1018.3 - 0.0
07/11:30am 31.2 25.3 4.1 18 14.4 SE 24 37 13 20 1018.7 - 0.0
07/11:00am 29.6 24.3 5.0 21 13.2 SE 22 41 12 22 1018.9 1013.7 0.0
07/10:30am 29.3 24.9 6.7 24 12.4 E 19 32 10 17 1019.1 - 0.0
07/10:00am 27.4 23.3 7.8 29 10.9 E 19 22 10 12 1019.2 - 0.0
07/09:30am 26.9 23.8 7.4 29 10.7 SSE 13 20 7 11 1019.3 - 0.0
07/09:00am 25.9 22.5 7.5 31 10.1 SSE 15 26 8 14 1019.1 - 0.0
07/08:30am 25.3 21.8 7.4 32 9.8 S 15 24 8 13 1019.0 - 0.0
07/08:00am 24.1 20.7 7.7 35 8.9 SSW 15 24 8 13 1018.7 1013.5 0.0
07/07:30am 23.4 20.3 7.1 35 8.8 SW 13 22 7 12 1018.6 - 0.0
07/07:00am 23.0 18.2 7.5 37 8.4 S 22 32 12 17 1018.1 - 0.0
07/06:30am 22.5 17.7 7.5 38 8.1 SSE 22 32 12 17 1017.5 - 0.0
07/06:00am 22.5 17.3 7.1 37 8.2 SSE 24 33 13 18 1017.1 - 0.0
07/05:30am 22.9 17.5 6.2 34 8.8 SSE 24 32 13 17 1016.7 - 0.0
07/05:00am 23.3 17.3 5.2 31 9.4 SSE 26 35 14 19 1016.4 1011.2 0.0
07/04:30am 23.1 18.5 3.6 28 9.8 SSE 17 24 9 13 1016.2 - 0.0
07/04:00am 24.0 18.3 2.8 25 10.6 SSE 22 33 12 18 1016.0 - 0.0
07/03:30am 24.6 19.2 2.7 24 10.9 S 20 30 11 16 1015.8 - 0.0
07/03:00am 25.3 19.2 2.7 23 11.3 S 24 33 13 18 1015.6 - 0.0
07/02:30am 25.6 20.2 2.3 22 11.6 SSE 20 30 11 16 1015.6 - 0.0
07/02:00am 25.9 20.4 1.9 21 11.9 SSE 20 28 11 15 1015.6 1010.4 0.0
07/01:30am 26.3 20.3 0.9 19 12.4 S 22 32 12 17 1015.7 - 0.0
07/01:00am 26.3 21.0 1.6 20 12.2 S 19 28 10 15 1015.8 - 0.0
07/12:30am 26.2 21.3 2.2 21 12.0 SSE 17 24 9 13 1015.9 - 0.0
07/12:00am 26.4 22.1 3.0 22 11.9 SSE 15 20 8 11 1016.0 - 0.0
 
Date/Time
CST
Temp
°C
App
Temp
°C
Dew
Point
Rel
Hum
%
Delta-T
°C
Wind Press
QNH
hPa
Press
MSL
hPa
Rain
since 9 am
mm
Dir
 
Spd
km/h
Gust
km/h
Spd
kts
Gust
kts
06/11:30pm 26.9 22.6 3.4 22 12.1 SSE 15 24 8 13 1015.9 - 0.0
06/11:00pm 26.8 22.7 4.6 24 11.6 SSE 15 20 8 11 1016.0 1010.8 0.0
06/10:30pm 27.4 23.8 5.1 24 11.8 SSE 13 19 7 10 1015.9 - 0.0
06/10:00pm 27.8 24.2 4.8 23 12.2 SSE 13 20 7 11 1015.7 - 0.0
06/09:30pm 28.2 24.6 5.1 23 12.3 SE 13 19 7 10 1015.5 - 0.0
06/09:00pm 28.9 24.9 5.1 22 12.7 SE 15 20 8 11 1015.2 - 0.0
06/08:30pm 29.3 24.9 4.7 21 13.1 SSE 17 26 9 14 1014.9 - 0.0
06/08:00pm 29.6 24.7 5.0 21 13.2 SE 20 32 11 17 1014.6 1009.4 0.0
06/07:30pm 29.9 24.9 4.5 20 13.5 SE 20 33 11 18 1014.3 - 0.0
06/07:00pm 30.7 25.8 5.2 20 13.8 SSE 20 33 11 18 1013.8 - 0.0
06/06:30pm 30.7 23.9 5.2 20 13.8 SSE 30 41 16 22 1013.7 - 0.0
06/06:00pm 31.6 26.0 5.2 19 14.4 S 24 32 13 17 1013.2 - 0.0
06/05:30pm 31.5 27.5 5.1 19 14.3 SSE 15 33 8 18 1013.1 - 0.0
06/05:00pm 31.9 27.1 5.4 19 14.5 SSE 20 32 11 17 1013.0 1007.8 0.0
06/04:30pm 32.0 24.9 5.5 19 14.5 SSE 32 41 17 22 1013.1 - 0.0
06/04:00pm 33.3 28.7 5.8 18 15.2 S 19 35 10 19 1013.1 - 0.0
06/03:30pm 32.5 27.4 5.9 19 14.7 SE 22 35 12 19 1013.3 - 0.0
06/03:00pm 32.5 27.0 5.9 19 14.7 ESE 24 41 13 22 1013.4 - 0.0
06/02:30pm 32.5 27.6 6.7 20 14.4 SE 22 35 12 19 1013.6 - 0.0
06/02:00pm 32.1 25.9 6.3 20 14.3 SSE 28 41 15 22 1014.1 1008.8 0.0
06/01:30pm 31.3 27.4 7.1 22 13.5 E 17 37 9 20 1014.5 - 0.0
06/01:00pm 31.0 26.6 7.5 23 13.2 SSE 20 28 11 15 1014.8 - 0.0
06/12:30pm 30.8 28.2 7.9 24 13.0 SSE 11 32 6 17 1015.1 - 0.0
06/12:00pm 29.9 25.6 7.2 24 12.6 SSE 19 33 10 18 1015.3 - 0.0
06/11:30am 30.0 25.2 7.2 24 12.7 SE 22 33 12 18 1015.8 - 0.0
06/11:00am 28.7 24.3 7.3 26 11.9 SE 20 35 11 19 1016.0 1010.8 0.0
06/10:30am 27.2 23.2 6.6 27 11.2 SSE 17 24 9 13 1016.3 - 0.0
06/10:00am 26.7 23.1 6.7 28 10.9 SSW 15 24 8 13 1016.5 - 0.0
06/09:30am 25.6 21.9 6.3 29 10.3 SSE 15 20 8 11 1016.5 - 0.0
06/09:00am 25.1 21.4 6.3 30 10.1 S 15 20 8 11 1016.3 - 0.0
06/08:30am 23.8 19.2 5.7 31 9.5 SSE 19 32 10 17 1016.2 - 0.0
06/08:00am 23.1 18.4 5.1 31 9.3 SSE 19 28 10 15 1016.0 1010.8 0.0
06/07:30am 22.6 18.4 3.7 29 9.5 SSE 15 22 8 12 1015.8 - 0.0
06/07:00am 22.1 18.2 3.3 29 9.3 SSE 13 22 7 12 1015.5 - 0.0
06/06:30am 21.7 17.0 3.4 30 9.1 S 17 24 9 13 1015.0 - 0.0
06/06:00am 21.7 17.4 3.4 30 9.1 SSE 15 20 8 11 1014.8 - 0.0
06/05:30am 21.7 17.5 3.9 31 8.9 SSE 15 20 8 11 1014.4 - 0.0
06/05:00am 21.5 17.7 3.7 31 8.9 SE 13 19 7 10 1014.3 1009.1 0.0
06/04:30am 22.0 17.9 4.1 31 9.0 SSE 15 20 8 11 1014.0 - 0.0
06/04:00am 22.4 17.9 4.0 30 9.3 SSE 17 22 9 12 1013.8 - 0.0
06/03:30am 22.1 18.4 4.2 31 9.0 SE 13 17 7 9 1014.0 - 0.0
06/03:00am 22.1 18.4 4.6 32 8.9 SE 13 19 7 10 1014.0 - 0.0
06/02:30am 21.9 18.2 4.5 32 8.8 SSE 13 17 7 9 1014.1 - 0.0
06/02:00am 23.0 18.9 4.5 30 9.5 SE 15 17 8 9 1014.3 1009.1 0.0
06/01:30am 23.5 19.4 4.5 29 9.7 SE 15 22 8 12 1014.5 - 0.0
06/01:00am 23.7 19.6 4.6 29 9.8 SE 15 22 8 12 1014.7 - 0.0
06/12:30am 23.7 19.6 4.6 29 9.8 SE 15 20 8 11 1014.9 - 0.0
06/12:00am 23.4 20.1 4.4 29 9.7 SSE 11 17 6 9 1014.9 - 0.0
 
Date/Time
CST
Temp
°C
App
Temp
°C
Dew
Point
Rel
Hum
%
Delta-T
°C
Wind Press
QNH
hPa
Press
MSL
hPa
Rain
since 9 am
mm
Dir
 
Spd
km/h
Gust
km/h
Spd
kts
Gust
kts
05/11:30pm 24.1 20.4 4.5 28 10.1 SSE 13 19 7 10 1015.1 - 0.0
05/11:00pm 24.3 20.5 4.1 27 10.3 SSE 13 20 7 11 1015.2 1010.0 0.0
05/10:30pm 24.3 20.5 4.1 27 10.3 SE 13 20 7 11 1015.3 - 0.0
05/10:00pm 24.8 21.8 4.0 26 10.7 SE 9 15 5 8 1015.2 - 0.0
05/09:30pm 24.8 21.3 3.5 25 10.8 SE 11 15 6 8 1015.1 - 0.0

Other Formats:

Comma delimited format used in spreadsheet applications
http://www.bom.gov.au/fwo/IDD60801/IDD60801.94474.axf

JavaScript Object Notation format (JSON) in row-major order
http://www.bom.gov.au/fwo/IDD60801/IDD60801.94474.json